sensor_id;sensor_type;location;lat;lon;timestamp;P1;durP1;ratioP1;P2;durP2;ratioP2
35646;SDS011;28680;45.642;13.756;2023-04-26T00:00:25;6.28;;;3.13;;
35646;SDS011;28680;45.642;13.756;2023-04-26T00:02:53;3.90;;;2.88;;
35646;SDS011;28680;45.642;13.756;2023-04-26T00:05:19;4.53;;;3.15;;
35646;SDS011;28680;45.642;13.756;2023-04-26T00:07:45;6.35;;;2.90;;
35646;SDS011;28680;45.642;13.756;2023-04-26T00:10:11;5.43;;;3.00;;
35646;SDS011;28680;45.642;13.756;2023-04-26T00:12:37;4.22;;;2.90;;
35646;SDS011;28680;45.642;13.756;2023-04-26T00:15:05;3.88;;;3.00;;
35646;SDS011;28680;45.642;13.756;2023-04-26T00:17:32;5.13;;;3.30;;
35646;SDS011;28680;45.642;13.756;2023-04-26T00:19:58;4.20;;;3.30;;
35646;SDS011;28680;45.642;13.756;2023-04-26T00:22:24;3.90;;;3.13;;
35646;SDS011;28680;45.642;13.756;2023-04-26T00:24:50;7.32;;;3.78;;
35646;SDS011;28680;45.642;13.756;2023-04-26T00:27:16;5.53;;;3.40;;
35646;SDS011;28680;45.642;13.756;2023-04-26T00:29:42;6.13;;;3.83;;
35646;SDS011;28680;45.642;13.756;2023-04-26T00:32:08;4.30;;;3.40;;
35646;SDS011;28680;45.642;13.756;2023-04-26T00:34:37;7.78;;;3.60;;
35646;SDS011;28680;45.642;13.756;2023-04-26T00:37:03;10.02;;;3.67;;
35646;SDS011;28680;45.642;13.756;2023-04-26T00:39:29;6.22;;;3.70;;
35646;SDS011;28680;45.642;13.756;2023-04-26T00:41:56;6.32;;;3.58;;
35646;SDS011;28680;45.642;13.756;2023-04-26T00:44:22;7.82;;;3.50;;
35646;SDS011;28680;45.642;13.756;2023-04-26T00:46:51;6.90;;;3.83;;
35646;SDS011;28680;45.642;13.756;2023-04-26T00:49:18;12.55;;;3.97;;
35646;SDS011;28680;45.642;13.756;2023-04-26T00:51:47;6.70;;;3.58;;
35646;SDS011;28680;45.642;13.756;2023-04-26T00:54:13;5.78;;;3.63;;
35646;SDS011;28680;45.642;13.756;2023-04-26T00:56:40;5.22;;;3.58;;
35646;SDS011;28680;45.642;13.756;2023-04-26T00:59:07;5.40;;;3.63;;
35646;SDS011;28680;45.642;13.756;2023-04-26T01:01:36;8.93;;;4.43;;
35646;SDS011;28680;45.642;13.756;2023-04-26T01:04:02;6.35;;;4.20;;
35646;SDS011;28680;45.642;13.756;2023-04-26T01:06:32;6.28;;;3.60;;
35646;SDS011;28680;45.642;13.756;2023-04-26T01:09:01;5.93;;;3.58;;
35646;SDS011;28680;45.642;13.756;2023-04-26T01:14:01;7.40;;;3.60;;
35646;SDS011;28680;45.642;13.756;2023-04-26T01:16:28;6.15;;;3.75;;
35646;SDS011;28680;45.642;13.756;2023-04-26T01:18:55;8.80;;;3.97;;
35646;SDS011;28680;45.642;13.756;2023-04-26T01:21:22;8.30;;;4.38;;
35646;SDS011;28680;45.642;13.756;2023-04-26T01:23:49;5.38;;;3.17;;
35646;SDS011;28680;45.642;13.756;2023-04-26T01:26:17;4.82;;;3.30;;
35646;SDS011;28680;45.642;13.756;2023-04-26T01:28:43;6.57;;;3.20;;
35646;SDS011;28680;45.642;13.756;2023-04-26T01:31:13;5.80;;;3.78;;
35646;SDS011;28680;45.642;13.756;2023-04-26T01:33:40;6.28;;;3.13;;
35646;SDS011;28680;45.642;13.756;2023-04-26T01:36:08;6.15;;;2.88;;
35646;SDS011;28680;45.642;13.756;2023-04-26T01:38:35;6.07;;;3.70;;
35646;SDS011;28680;45.642;13.756;2023-04-26T01:41:01;3.88;;;3.13;;
35646;SDS011;28680;45.642;13.756;2023-04-26T01:43:27;7.00;;;3.42;;
35646;SDS011;28680;45.642;13.756;2023-04-26T01:45:53;4.50;;;2.90;;
35646;SDS011;28680;45.642;13.756;2023-04-26T01:48:19;5.00;;;3.30;;
35646;SDS011;28680;45.642;13.756;2023-04-26T01:50:45;7.43;;;3.65;;
35646;SDS011;28680;45.642;13.756;2023-04-26T01:53:11;5.95;;;2.95;;
35646;SDS011;28680;45.642;13.756;2023-04-26T01:55:37;5.38;;;3.25;;
35646;SDS011;28680;45.642;13.756;2023-04-26T01:58:03;6.22;;;3.28;;
35646;SDS011;28680;45.642;13.756;2023-04-26T02:00:29;4.95;;;3.00;;
35646;SDS011;28680;45.642;13.756;2023-04-26T02:02:56;6.30;;;2.80;;
35646;SDS011;28680;45.642;13.756;2023-04-26T02:05:22;3.58;;;2.10;;
35646;SDS011;28680;45.642;13.756;2023-04-26T02:07:48;3.80;;;2.30;;
35646;SDS011;28680;45.642;13.756;2023-04-26T02:10:15;3.58;;;1.70;;
35646;SDS011;28680;45.642;13.756;2023-04-26T02:12:41;2.03;;;1.70;;
35646;SDS011;28680;45.642;13.756;2023-04-26T02:15:07;2.50;;;1.55;;
35646;SDS011;28680;45.642;13.756;2023-04-26T02:17:33;4.97;;;1.45;;
35646;SDS011;28680;45.642;13.756;2023-04-26T02:20:01;2.80;;;1.40;;
35646;SDS011;28680;45.642;13.756;2023-04-26T02:22:28;1.75;;;1.30;;
35646;SDS011;28680;45.642;13.756;2023-04-26T02:24:55;3.40;;;1.70;;
35646;SDS011;28680;45.642;13.756;2023-04-26T02:27:21;5.95;;;1.83;;
35646;SDS011;28680;45.642;13.756;2023-04-26T02:29:47;2.90;;;1.55;;
35646;SDS011;28680;45.642;13.756;2023-04-26T02:32:13;4.25;;;1.80;;
35646;SDS011;28680;45.642;13.756;2023-04-26T02:34:39;2.75;;;1.73;;
35646;SDS011;28680;45.642;13.756;2023-04-26T02:37:05;3.22;;;2.15;;
35646;SDS011;28680;45.642;13.756;2023-04-26T02:39:31;5.28;;;2.08;;
35646;SDS011;28680;45.642;13.756;2023-04-26T02:41:57;1.63;;;1.10;;
35646;SDS011;28680;45.642;13.756;2023-04-26T02:44:23;3.17;;;1.27;;
35646;SDS011;28680;45.642;13.756;2023-04-26T02:46:49;1.23;;;1.10;;
35646;SDS011;28680;45.642;13.756;2023-04-26T02:49:15;4.28;;;1.30;;
35646;SDS011;28680;45.642;13.756;2023-04-26T02:51:41;3.53;;;1.15;;
35646;SDS011;28680;45.642;13.756;2023-04-26T02:54:07;1.83;;;1.30;;
35646;SDS011;28680;45.642;13.756;2023-04-26T02:56:33;1.98;;;1.17;;
35646;SDS011;28680;45.642;13.756;2023-04-26T02:58:59;1.75;;;1.23;;
35646;SDS011;28680;45.642;13.756;2023-04-26T03:01:25;2.83;;;1.10;;
35646;SDS011;28680;45.642;13.756;2023-04-26T03:03:51;2.08;;;1.10;;
35646;SDS011;28680;45.642;13.756;2023-04-26T03:06:18;1.90;;;1.08;;
35646;SDS011;28680;45.642;13.756;2023-04-26T03:08:44;3.10;;;1.00;;
35646;SDS011;28680;45.642;13.756;2023-04-26T03:11:10;3.58;;;1.20;;
35646;SDS011;28680;45.642;13.756;2023-04-26T03:13:36;6.78;;;1.77;;
35646;SDS011;28680;45.642;13.756;2023-04-26T03:16:02;3.08;;;1.50;;
35646;SDS011;28680;45.642;13.756;2023-04-26T03:18:28;2.67;;;1.70;;
35646;SDS011;28680;45.642;13.756;2023-04-26T03:20:53;1.60;;;1.30;;
35646;SDS011;28680;45.642;13.756;2023-04-26T03:23:21;4.53;;;1.65;;
35646;SDS011;28680;45.642;13.756;2023-04-26T03:25:49;2.25;;;1.40;;
35646;SDS011;28680;45.642;13.756;2023-04-26T03:28:15;3.03;;;1.50;;
35646;SDS011;28680;45.642;13.756;2023-04-26T03:30:42;2.60;;;1.50;;
35646;SDS011;28680;45.642;13.756;2023-04-26T03:33:07;2.13;;;1.33;;
35646;SDS011;28680;45.642;13.756;2023-04-26T03:35:33;2.03;;;1.17;;
35646;SDS011;28680;45.642;13.756;2023-04-26T03:38:00;2.17;;;1.20;;
35646;SDS011;28680;45.642;13.756;2023-04-26T03:40:25;3.45;;;1.50;;
35646;SDS011;28680;45.642;13.756;2023-04-26T03:42:51;2.13;;;1.10;;
35646;SDS011;28680;45.642;13.756;2023-04-26T03:45:17;1.20;;;1.00;;
35646;SDS011;28680;45.642;13.756;2023-04-26T03:47:43;2.95;;;1.25;;
35646;SDS011;28680;45.642;13.756;2023-04-26T03:50:09;1.95;;;1.20;;
35646;SDS011;28680;45.642;13.756;2023-04-26T03:52:35;2.60;;;1.40;;
35646;SDS011;28680;45.642;13.756;2023-04-26T03:55:01;3.75;;;1.10;;
35646;SDS011;28680;45.642;13.756;2023-04-26T03:57:27;1.38;;;1.08;;
35646;SDS011;28680;45.642;13.756;2023-04-26T03:59:53;1.85;;;1.15;;
35646;SDS011;28680;45.642;13.756;2023-04-26T04:02:19;1.00;;;0.90;;
35646;SDS011;28680;45.642;13.756;2023-04-26T04:04:45;2.80;;;0.90;;
35646;SDS011;28680;45.642;13.756;2023-04-26T04:07:12;2.25;;;1.10;;
35646;SDS011;28680;45.642;13.756;2023-04-26T04:09:38;2.45;;;1.17;;
35646;SDS011;28680;45.642;13.756;2023-04-26T04:12:04;1.75;;;1.20;;
35646;SDS011;28680;45.642;13.756;2023-04-26T04:14:30;1.73;;;1.50;;
35646;SDS011;28680;45.642;13.756;2023-04-26T04:16:56;2.38;;;1.50;;
35646;SDS011;28680;45.642;13.756;2023-04-26T04:19:23;3.22;;;1.60;;
35646;SDS011;28680;45.642;13.756;2023-04-26T04:21:49;2.47;;;1.75;;
35646;SDS011;28680;45.642;13.756;2023-04-26T04:24:15;2.95;;;1.90;;
35646;SDS011;28680;45.642;13.756;2023-04-26T04:26:41;2.65;;;2.03;;
35646;SDS011;28680;45.642;13.756;2023-04-26T04:29:07;3.78;;;2.00;;
35646;SDS011;28680;45.642;13.756;2023-04-26T04:31:36;2.28;;;1.98;;
35646;SDS011;28680;45.642;13.756;2023-04-26T04:34:04;2.97;;;2.13;;
35646;SDS011;28680;45.642;13.756;2023-04-26T04:36:30;2.83;;;2.20;;
35646;SDS011;28680;45.642;13.756;2023-04-26T04:38:56;4.93;;;1.70;;
35646;SDS011;28680;45.642;13.756;2023-04-26T04:41:22;4.20;;;2.00;;
35646;SDS011;28680;45.642;13.756;2023-04-26T04:43:48;2.95;;;2.13;;
35646;SDS011;28680;45.642;13.756;2023-04-26T04:46:14;3.10;;;1.60;;
35646;SDS011;28680;45.642;13.756;2023-04-26T04:48:40;3.63;;;1.48;;
35646;SDS011;28680;45.642;13.756;2023-04-26T04:51:07;1.58;;;1.10;;
35646;SDS011;28680;45.642;13.756;2023-04-26T04:53:33;1.35;;;1.00;;
35646;SDS011;28680;45.642;13.756;2023-04-26T04:55:59;2.25;;;0.98;;
35646;SDS011;28680;45.642;13.756;2023-04-26T04:58:25;2.85;;;1.00;;
35646;SDS011;28680;45.642;13.756;2023-04-26T05:00:51;1.83;;;1.00;;
35646;SDS011;28680;45.642;13.756;2023-04-26T05:03:20;2.30;;;1.10;;
35646;SDS011;28680;45.642;13.756;2023-04-26T05:05:46;1.10;;;0.80;;
35646;SDS011;28680;45.642;13.756;2023-04-26T05:08:12;1.70;;;0.98;;
35646;SDS011;28680;45.642;13.756;2023-04-26T05:10:38;0.85;;;0.80;;
35646;SDS011;28680;45.642;13.756;2023-04-26T05:13:04;1.15;;;1.00;;
35646;SDS011;28680;45.642;13.756;2023-04-26T05:15:30;0.95;;;0.80;;
35646;SDS011;28680;45.642;13.756;2023-04-26T05:17:56;2.25;;;0.70;;
35646;SDS011;28680;45.642;13.756;2023-04-26T05:20:23;8.05;;;1.10;;
35646;SDS011;28680;45.642;13.756;2023-04-26T05:22:49;3.28;;;0.88;;
35646;SDS011;28680;45.642;13.756;2023-04-26T05:25:16;2.25;;;0.90;;
35646;SDS011;28680;45.642;13.756;2023-04-26T05:27:42;5.78;;;1.00;;
35646;SDS011;28680;45.642;13.756;2023-04-26T05:30:09;1.38;;;0.85;;
35646;SDS011;28680;45.642;13.756;2023-04-26T05:32:36;2.45;;;0.80;;
35646;SDS011;28680;45.642;13.756;2023-04-26T05:35:03;1.27;;;0.70;;
35646;SDS011;28680;45.642;13.756;2023-04-26T05:37:31;1.05;;;0.68;;
35646;SDS011;28680;45.642;13.756;2023-04-26T05:39:57;2.78;;;0.90;;
35646;SDS011;28680;45.642;13.756;2023-04-26T05:42:23;0.75;;;0.57;;
35646;SDS011;28680;45.642;13.756;2023-04-26T05:44:48;2.00;;;1.02;;
35646;SDS011;28680;45.642;13.756;2023-04-26T05:47:14;2.47;;;1.00;;
35646;SDS011;28680;45.642;13.756;2023-04-26T05:49:40;4.03;;;1.52;;
35646;SDS011;28680;45.642;13.756;2023-04-26T05:52:06;7.93;;;1.40;;
35646;SDS011;28680;45.642;13.756;2023-04-26T05:54:32;5.25;;;1.42;;
35646;SDS011;28680;45.642;13.756;2023-04-26T05:56:58;3.83;;;1.50;;
35646;SDS011;28680;45.642;13.756;2023-04-26T05:59:23;1.77;;;1.15;;
35646;SDS011;28680;45.642;13.756;2023-04-26T06:01:49;4.00;;;1.50;;
35646;SDS011;28680;45.642;13.756;2023-04-26T06:04:15;2.90;;;1.60;;
35646;SDS011;28680;45.642;13.756;2023-04-26T06:06:41;4.55;;;1.80;;
35646;SDS011;28680;45.642;13.756;2023-04-26T06:09:07;2.92;;;1.30;;
35646;SDS011;28680;45.642;13.756;2023-04-26T06:11:33;4.25;;;1.67;;
35646;SDS011;28680;45.642;13.756;2023-04-26T06:13:59;3.00;;;1.10;;
35646;SDS011;28680;45.642;13.756;2023-04-26T06:16:25;3.67;;;1.23;;
35646;SDS011;28680;45.642;13.756;2023-04-26T06:18:51;3.95;;;1.08;;
35646;SDS011;28680;45.642;13.756;2023-04-26T06:21:17;1.40;;;0.90;;
35646;SDS011;28680;45.642;13.756;2023-04-26T06:23:43;3.30;;;0.85;;
35646;SDS011;28680;45.642;13.756;2023-04-26T06:26:08;1.08;;;0.70;;
35646;SDS011;28680;45.642;13.756;2023-04-26T06:28:34;2.45;;;0.70;;
35646;SDS011;28680;45.642;13.756;2023-04-26T06:31:00;1.13;;;0.70;;
35646;SDS011;28680;45.642;13.756;2023-04-26T06:33:26;1.00;;;0.70;;
35646;SDS011;28680;45.642;13.756;2023-04-26T06:35:52;2.05;;;1.00;;
35646;SDS011;28680;45.642;13.756;2023-04-26T06:38:18;1.52;;;1.20;;
35646;SDS011;28680;45.642;13.756;2023-04-26T06:40:43;2.53;;;1.55;;
35646;SDS011;28680;45.642;13.756;2023-04-26T06:43:09;1.17;;;0.70;;
35646;SDS011;28680;45.642;13.756;2023-04-26T06:45:36;0.98;;;0.80;;
35646;SDS011;28680;45.642;13.756;2023-04-26T06:48:01;2.25;;;0.60;;
35646;SDS011;28680;45.642;13.756;2023-04-26T06:50:28;1.02;;;0.73;;
35646;SDS011;28680;45.642;13.756;2023-04-26T06:52:54;2.10;;;0.80;;
35646;SDS011;28680;45.642;13.756;2023-04-26T06:55:20;2.95;;;1.00;;
35646;SDS011;28680;45.642;13.756;2023-04-26T06:57:46;3.45;;;1.05;;
35646;SDS011;28680;45.642;13.756;2023-04-26T07:00:14;2.67;;;1.33;;
35646;SDS011;28680;45.642;13.756;2023-04-26T07:02:41;2.03;;;1.10;;
35646;SDS011;28680;45.642;13.756;2023-04-26T07:05:07;1.60;;;1.05;;
35646;SDS011;28680;45.642;13.756;2023-04-26T07:07:33;2.22;;;1.02;;
35646;SDS011;28680;45.642;13.756;2023-04-26T07:09:59;2.80;;;1.20;;
35646;SDS011;28680;45.642;13.756;2023-04-26T07:12:25;2.45;;;1.42;;
35646;SDS011;28680;45.642;13.756;2023-04-26T07:14:51;3.85;;;1.98;;
35646;SDS011;28680;45.642;13.756;2023-04-26T07:17:17;5.05;;;2.75;;
35646;SDS011;28680;45.642;13.756;2023-04-26T07:22:40;3.38;;;2.50;;
35646;SDS011;28680;45.642;13.756;2023-04-26T07:25:35;4.75;;;2.53;;
35646;SDS011;28680;45.642;13.756;2023-04-26T07:28:07;3.08;;;2.35;;
35646;SDS011;28680;45.642;13.756;2023-04-26T07:30:38;7.10;;;4.20;;
35646;SDS011;28680;45.642;13.756;2023-04-26T07:33:17;4.45;;;2.88;;
35646;SDS011;28680;45.642;13.756;2023-04-26T07:35:43;3.00;;;1.15;;
35646;SDS011;28680;45.642;13.756;2023-04-26T07:38:12;3.75;;;1.33;;
35646;SDS011;28680;45.642;13.756;2023-04-26T07:41:13;2.65;;;1.80;;
35646;SDS011;28680;45.642;13.756;2023-04-26T07:43:40;2.45;;;1.52;;
35646;SDS011;28680;45.642;13.756;2023-04-26T07:46:12;2.80;;;1.50;;
35646;SDS011;28680;45.642;13.756;2023-04-26T07:48:50;2.25;;;1.27;;
35646;SDS011;28680;45.642;13.756;2023-04-26T07:51:23;2.22;;;1.30;;
35646;SDS011;28680;45.642;13.756;2023-04-26T07:53:57;3.72;;;1.55;;
35646;SDS011;28680;45.642;13.756;2023-04-26T07:56:23;1.20;;;0.90;;
35646;SDS011;28680;45.642;13.756;2023-04-26T07:58:49;2.65;;;0.90;;
35646;SDS011;28680;45.642;13.756;2023-04-26T08:01:15;2.10;;;0.98;;
35646;SDS011;28680;45.642;13.756;2023-04-26T08:03:41;3.25;;;1.00;;
35646;SDS011;28680;45.642;13.756;2023-04-26T08:06:07;1.77;;;0.90;;
35646;SDS011;28680;45.642;13.756;2023-04-26T08:08:39;1.52;;;0.90;;
35646;SDS011;28680;45.642;13.756;2023-04-26T08:11:08;1.60;;;0.98;;
35646;SDS011;28680;45.642;13.756;2023-04-26T08:13:37;1.50;;;0.77;;
35646;SDS011;28680;45.642;13.756;2023-04-26T08:18:32;1.50;;;0.80;;
35646;SDS011;28680;45.642;13.756;2023-04-26T08:28:00;2.05;;;0.90;;
35646;SDS011;28680;45.642;13.756;2023-04-26T08:30:33;1.42;;;0.73;;
35646;SDS011;28680;45.642;13.756;2023-04-26T08:33:12;0.90;;;0.80;;
35646;SDS011;28680;45.642;13.756;2023-04-26T08:40:10;1.40;;;0.80;;
35646;SDS011;28680;45.642;13.756;2023-04-26T08:42:59;2.47;;;1.27;;
35646;SDS011;28680;45.642;13.756;2023-04-26T08:45:28;1.13;;;0.95;;
35646;SDS011;28680;45.642;13.756;2023-04-26T08:51:56;2.22;;;1.10;;
35646;SDS011;28680;45.642;13.756;2023-04-26T08:54:54;2.05;;;1.08;;
35646;SDS011;28680;45.642;13.756;2023-04-26T08:57:59;1.02;;;0.93;;
35646;SDS011;28680;45.642;13.756;2023-04-26T09:01:02;2.10;;;1.02;;
35646;SDS011;28680;45.642;13.756;2023-04-26T09:06:05;1.75;;;1.27;;
35646;SDS011;28680;45.642;13.756;2023-04-26T09:08:31;1.50;;;1.08;;
35646;SDS011;28680;45.642;13.756;2023-04-26T09:11:27;1.30;;;0.90;;
35646;SDS011;28680;45.642;13.756;2023-04-26T09:14:27;2.22;;;1.20;;
35646;SDS011;28680;45.642;13.756;2023-04-26T09:16:56;1.25;;;0.90;;
35646;SDS011;28680;45.642;13.756;2023-04-26T09:26:32;1.58;;;0.80;;
35646;SDS011;28680;45.642;13.756;2023-04-26T09:44:29;1.95;;;0.80;;
35646;SDS011;28680;45.642;13.756;2023-04-26T09:49:41;3.92;;;0.93;;
35646;SDS011;28680;45.642;13.756;2023-04-26T10:03:57;1.00;;;0.70;;
35646;SDS011;28680;45.642;13.756;2023-04-26T10:10:09;4.18;;;1.20;;
35646;SDS011;28680;45.642;13.756;2023-04-26T10:12:45;1.13;;;0.85;;
35646;SDS011;28680;45.642;13.756;2023-04-26T10:15:12;0.50;;;0.50;;
35646;SDS011;28680;45.642;13.756;2023-04-26T10:17:39;1.63;;;0.65;;
35646;SDS011;28680;45.642;13.756;2023-04-26T10:20:06;1.58;;;0.80;;
35646;SDS011;28680;45.642;13.756;2023-04-26T10:22:43;2.08;;;0.85;;
35646;SDS011;28680;45.642;13.756;2023-04-26T10:25:37;1.65;;;0.80;;
35646;SDS011;28680;45.642;13.756;2023-04-26T10:28:06;1.90;;;0.70;;
35646;SDS011;28680;45.642;13.756;2023-04-26T10:37:04;1.25;;;0.52;;
35646;SDS011;28680;45.642;13.756;2023-04-26T10:39:38;0.80;;;0.57;;
35646;SDS011;28680;45.642;13.756;2023-04-26T10:44:52;2.58;;;0.68;;
35646;SDS011;28680;45.642;13.756;2023-04-26T10:52:35;1.02;;;0.60;;
35646;SDS011;28680;45.642;13.756;2023-04-26T10:55:40;0.80;;;0.63;;
35646;SDS011;28680;45.642;13.756;2023-04-26T10:58:25;1.40;;;0.90;;
35646;SDS011;28680;45.642;13.756;2023-04-26T11:06:45;1.13;;;0.90;;
35646;SDS011;28680;45.642;13.756;2023-04-26T11:12:06;3.17;;;1.27;;
35646;SDS011;28680;45.642;13.756;2023-04-26T11:14:37;2.92;;;1.60;;
35646;SDS011;28680;45.642;13.756;2023-04-26T11:17:05;4.85;;;1.75;;
35646;SDS011;28680;45.642;13.756;2023-04-26T11:19:35;2.95;;;1.55;;
35646;SDS011;28680;45.642;13.756;2023-04-26T11:22:02;3.03;;;1.70;;
35646;SDS011;28680;45.642;13.756;2023-04-26T11:24:31;2.35;;;1.50;;
35646;SDS011;28680;45.642;13.756;2023-04-26T11:27:09;3.80;;;1.35;;
35646;SDS011;28680;45.642;13.756;2023-04-26T11:29:39;2.25;;;1.42;;
35646;SDS011;28680;45.642;13.756;2023-04-26T11:32:05;3.83;;;1.50;;
35646;SDS011;28680;45.642;13.756;2023-04-26T11:34:32;3.60;;;1.95;;
35646;SDS011;28680;45.642;13.756;2023-04-26T11:37:05;4.20;;;2.03;;
35646;SDS011;28680;45.642;13.756;2023-04-26T11:39:35;4.57;;;2.47;;
35646;SDS011;28680;45.642;13.756;2023-04-26T11:42:07;5.35;;;2.40;;
35646;SDS011;28680;45.642;13.756;2023-04-26T11:44:35;3.35;;;2.28;;
35646;SDS011;28680;45.642;13.756;2023-04-26T11:47:06;6.00;;;2.90;;
35646;SDS011;28680;45.642;13.756;2023-04-26T11:49:34;4.25;;;2.17;;
35646;SDS011;28680;45.642;13.756;2023-04-26T11:52:02;2.83;;;2.30;;
35646;SDS011;28680;45.642;13.756;2023-04-26T11:54:29;5.32;;;2.17;;
35646;SDS011;28680;45.642;13.756;2023-04-26T11:56:57;7.07;;;2.35;;
35646;SDS011;28680;45.642;13.756;2023-04-26T11:59:24;3.80;;;2.30;;
35646;SDS011;28680;45.642;13.756;2023-04-26T12:01:54;2.78;;;2.05;;
35646;SDS011;28680;45.642;13.756;2023-04-26T12:04:27;4.68;;;2.15;;
35646;SDS011;28680;45.642;13.756;2023-04-26T12:06:55;3.00;;;2.13;;
35646;SDS011;28680;45.642;13.756;2023-04-26T12:09:22;2.80;;;1.90;;
35646;SDS011;28680;45.642;13.756;2023-04-26T12:12:07;3.60;;;2.08;;
35646;SDS011;28680;45.642;13.756;2023-04-26T12:14:33;3.00;;;1.83;;
35646;SDS011;28680;45.642;13.756;2023-04-26T12:17:02;5.25;;;2.42;;
35646;SDS011;28680;45.642;13.756;2023-04-26T12:22:01;7.85;;;2.10;;
35646;SDS011;28680;45.642;13.756;2023-04-26T12:24:28;4.50;;;1.73;;
35646;SDS011;28680;45.642;13.756;2023-04-26T12:27:00;2.95;;;1.52;;
35646;SDS011;28680;45.642;13.756;2023-04-26T12:29:28;3.08;;;1.42;;
35646;SDS011;28680;45.642;13.756;2023-04-26T12:31:56;4.47;;;1.95;;
35646;SDS011;28680;45.642;13.756;2023-04-26T12:34:23;3.45;;;1.67;;
35646;SDS011;28680;45.642;13.756;2023-04-26T12:36:49;2.97;;;1.60;;
35646;SDS011;28680;45.642;13.756;2023-04-26T12:39:15;1.92;;;1.40;;
35646;SDS011;28680;45.642;13.756;2023-04-26T12:41:41;3.72;;;1.60;;
35646;SDS011;28680;45.642;13.756;2023-04-26T12:44:08;5.32;;;1.90;;
35646;SDS011;28680;45.642;13.756;2023-04-26T12:46:36;2.92;;;1.70;;
35646;SDS011;28680;45.642;13.756;2023-04-26T12:49:02;3.65;;;1.70;;
35646;SDS011;28680;45.642;13.756;2023-04-26T12:51:28;1.88;;;1.20;;
35646;SDS011;28680;45.642;13.756;2023-04-26T12:53:55;2.90;;;1.30;;
35646;SDS011;28680;45.642;13.756;2023-04-26T12:56:22;1.90;;;1.02;;
35646;SDS011;28680;45.642;13.756;2023-04-26T12:58:49;2.70;;;1.30;;
35646;SDS011;28680;45.642;13.756;2023-04-26T13:01:15;1.58;;;1.23;;
35646;SDS011;28680;45.642;13.756;2023-04-26T13:03:41;2.30;;;1.38;;
35646;SDS011;28680;45.642;13.756;2023-04-26T13:06:07;3.08;;;1.35;;
35646;SDS011;28680;45.642;13.756;2023-04-26T13:08:34;1.52;;;1.20;;
35646;SDS011;28680;45.642;13.756;2023-04-26T13:11:00;2.95;;;1.33;;
35646;SDS011;28680;45.642;13.756;2023-04-26T13:13:26;4.30;;;1.50;;
35646;SDS011;28680;45.642;13.756;2023-04-26T13:15:51;2.15;;;1.40;;
35646;SDS011;28680;45.642;13.756;2023-04-26T13:18:17;5.90;;;1.67;;
35646;SDS011;28680;45.642;13.756;2023-04-26T13:20:44;2.53;;;1.55;;
35646;SDS011;28680;45.642;13.756;2023-04-26T13:23:10;4.30;;;1.60;;
35646;SDS011;28680;45.642;13.756;2023-04-26T13:25:36;2.47;;;1.75;;
35646;SDS011;28680;45.642;13.756;2023-04-26T13:28:02;2.97;;;1.45;;
35646;SDS011;28680;45.642;13.756;2023-04-26T13:30:28;3.53;;;1.20;;
35646;SDS011;28680;45.642;13.756;2023-04-26T13:32:55;2.22;;;1.10;;
35646;SDS011;28680;45.642;13.756;2023-04-26T13:35:21;2.05;;;1.10;;
35646;SDS011;28680;45.642;13.756;2023-04-26T13:37:47;3.35;;;1.23;;
35646;SDS011;28680;45.642;13.756;2023-04-26T13:40:13;3.55;;;0.90;;
35646;SDS011;28680;45.642;13.756;2023-04-26T13:42:39;3.17;;;1.30;;
35646;SDS011;28680;45.642;13.756;2023-04-26T13:45:05;1.55;;;1.05;;
35646;SDS011;28680;45.642;13.756;2023-04-26T13:47:35;4.47;;;1.10;;
35646;SDS011;28680;45.642;13.756;2023-04-26T13:50:01;1.92;;;0.90;;
35646;SDS011;28680;45.642;13.756;2023-04-26T13:52:33;3.88;;;0.90;;
35646;SDS011;28680;45.642;13.756;2023-04-26T13:54:59;1.42;;;0.80;;
35646;SDS011;28680;45.642;13.756;2023-04-26T13:57:25;4.03;;;1.75;;
35646;SDS011;28680;45.642;13.756;2023-04-26T13:59:52;1.65;;;0.93;;
35646;SDS011;28680;45.642;13.756;2023-04-26T14:02:18;2.45;;;0.98;;
35646;SDS011;28680;45.642;13.756;2023-04-26T14:04:44;3.38;;;1.23;;
35646;SDS011;28680;45.642;13.756;2023-04-26T14:07:10;5.18;;;1.58;;
35646;SDS011;28680;45.642;13.756;2023-04-26T14:09:36;1.67;;;0.90;;
35646;SDS011;28680;45.642;13.756;2023-04-26T14:12:01;4.00;;;1.08;;
35646;SDS011;28680;45.642;13.756;2023-04-26T14:14:28;1.55;;;0.90;;
35646;SDS011;28680;45.642;13.756;2023-04-26T14:16:53;1.90;;;1.00;;
35646;SDS011;28680;45.642;13.756;2023-04-26T14:19:19;1.75;;;1.00;;
35646;SDS011;28680;45.642;13.756;2023-04-26T14:21:45;6.45;;;1.27;;
35646;SDS011;28680;45.642;13.756;2023-04-26T14:24:11;2.05;;;0.90;;
35646;SDS011;28680;45.642;13.756;2023-04-26T14:26:37;2.13;;;0.88;;
35646;SDS011;28680;45.642;13.756;2023-04-26T14:29:03;1.00;;;0.88;;
35646;SDS011;28680;45.642;13.756;2023-04-26T14:31:29;2.30;;;1.38;;
35646;SDS011;28680;45.642;13.756;2023-04-26T14:33:56;1.35;;;0.90;;
35646;SDS011;28680;45.642;13.756;2023-04-26T14:36:22;1.60;;;0.98;;
35646;SDS011;28680;45.642;13.756;2023-04-26T14:38:48;3.00;;;1.20;;
35646;SDS011;28680;45.642;13.756;2023-04-26T14:41:14;1.60;;;1.00;;
35646;SDS011;28680;45.642;13.756;2023-04-26T14:43:41;4.63;;;1.27;;
35646;SDS011;28680;45.642;13.756;2023-04-26T14:46:10;2.63;;;1.20;;
35646;SDS011;28680;45.642;13.756;2023-04-26T14:48:39;3.08;;;0.90;;
35646;SDS011;28680;45.642;13.756;2023-04-26T14:51:05;2.70;;;1.00;;
35646;SDS011;28680;45.642;13.756;2023-04-26T14:53:30;2.92;;;1.10;;
35646;SDS011;28680;45.642;13.756;2023-04-26T14:55:57;0.70;;;0.70;;
35646;SDS011;28680;45.642;13.756;2023-04-26T14:58:24;2.67;;;1.20;;
35646;SDS011;28680;45.642;13.756;2023-04-26T15:00:51;4.60;;;1.20;;
35646;SDS011;28680;45.642;13.756;2023-04-26T15:03:18;3.33;;;1.00;;
35646;SDS011;28680;45.642;13.756;2023-04-26T15:05:45;2.40;;;0.90;;
35646;SDS011;28680;45.642;13.756;2023-04-26T15:08:11;3.30;;;1.10;;
35646;SDS011;28680;45.642;13.756;2023-04-26T15:10:37;2.95;;;1.23;;
35646;SDS011;28680;45.642;13.756;2023-04-26T15:13:03;2.13;;;1.08;;
35646;SDS011;28680;45.642;13.756;2023-04-26T15:15:29;4.18;;;1.27;;
35646;SDS011;28680;45.642;13.756;2023-04-26T15:17:55;1.40;;;1.00;;
35646;SDS011;28680;45.642;13.756;2023-04-26T15:20:21;1.63;;;1.10;;
35646;SDS011;28680;45.642;13.756;2023-04-26T15:22:48;2.72;;;1.20;;
35646;SDS011;28680;45.642;13.756;2023-04-26T15:25:14;3.78;;;1.20;;
35646;SDS011;28680;45.642;13.756;2023-04-26T15:27:40;3.05;;;1.25;;
35646;SDS011;28680;45.642;13.756;2023-04-26T15:30:06;3.25;;;1.13;;
35646;SDS011;28680;45.642;13.756;2023-04-26T15:32:33;2.25;;;1.25;;
35646;SDS011;28680;45.642;13.756;2023-04-26T15:34:59;1.65;;;1.17;;
35646;SDS011;28680;45.642;13.756;2023-04-26T15:37:25;3.67;;;1.35;;
35646;SDS011;28680;45.642;13.756;2023-04-26T15:39:51;3.05;;;0.98;;
35646;SDS011;28680;45.642;13.756;2023-04-26T15:42:17;1.33;;;0.93;;
35646;SDS011;28680;45.642;13.756;2023-04-26T15:44:43;2.60;;;1.00;;
35646;SDS011;28680;45.642;13.756;2023-04-26T15:47:09;2.17;;;1.20;;
35646;SDS011;28680;45.642;13.756;2023-04-26T15:49:35;3.28;;;1.00;;
35646;SDS011;28680;45.642;13.756;2023-04-26T15:52:00;3.60;;;1.00;;
35646;SDS011;28680;45.642;13.756;2023-04-26T15:54:26;2.67;;;1.60;;
35646;SDS011;28680;45.642;13.756;2023-04-26T15:56:52;2.97;;;1.20;;
35646;SDS011;28680;45.642;13.756;2023-04-26T15:59:19;1.48;;;1.05;;
35646;SDS011;28680;45.642;13.756;2023-04-26T16:01:45;1.58;;;1.30;;
35646;SDS011;28680;45.642;13.756;2023-04-26T16:04:11;4.05;;;1.50;;
35646;SDS011;28680;45.642;13.756;2023-04-26T16:06:37;2.88;;;1.45;;
35646;SDS011;28680;45.642;13.756;2023-04-26T16:09:03;2.17;;;1.10;;